Time;durP1;ratioP1;P1;durP2;ratioP2;P2;SDS_P1;SDS_P2;PMS_P1;PMS_P2;Temp;Humidity;BMP_temperature;BMP_pressure;BME280_temperature;BME280_humidity;BME280_pressure;Samples;Min_cycle;Max_cycle;Signal;HPM_P1;HPM_P2
2023/05/30 00:00:28;;;;;;;;;5.00;5.00;;;;;17.93;44.82;101377.28;5073645;27;45683;-78
2023/05/30 00:02:53;;;;;;;;;3.50;3.25;;;;;17.93;44.93;101376.44;5089595;27;45833;-79
2023/05/30 00:05:19;;;;;;;;;4.00;3.75;;;;;17.87;44.69;101377.81;5077228;27;46408;-79
2023/05/30 00:07:45;;;;;;;;;5.00;3.75;;;;;17.81;44.28;101385.50;5076942;28;45780;-78
2023/05/30 00:10:10;;;;;;;;;5.25;3.50;;;;;17.80;44.84;101387.31;5076729;28;45579;-80
2023/05/30 00:12:35;;;;;;;;;3.00;3.00;;;;;17.79;44.70;101395.41;5077396;28;45597;-80
2023/05/30 00:18:23;;;;;;;;;4.75;3.50;;;;;17.72;44.38;101397.75;5076672;28;45743;-80
2023/05/30 00:20:49;;;;;;;;;4.25;4.00;;;;;17.72;44.38;101395.09;5077150;27;45666;-80
2023/05/30 00:23:15;;;;;;;;;5.00;4.00;;;;;17.71;44.62;101384.63;5077113;27;45717;-81
2023/05/30 00:25:41;;;;;;;;;4.25;3.25;;;;;17.70;44.63;101394.41;5076866;28;45876;-81
2023/05/30 00:28:07;;;;;;;;;3.25;3.00;;;;;17.69;44.56;101400.69;5076504;27;46219;-79
2023/05/30 00:30:36;;;;;;;;;5.25;5.00;;;;;17.67;44.66;101402.63;5076789;27;45833;-79
2023/05/30 00:33:01;;;;;;;;;4.50;3.00;;;;;17.63;44.35;101389.78;5076668;27;45755;-78
2023/05/30 00:35:27;;;;;;;;;4.00;3.00;;;;;17.59;44.53;101392.72;5076817;28;45564;-78
2023/05/30 00:37:52;;;;;;;;;4.00;3.50;;;;;17.56;44.67;101397.38;5076678;27;46486;-78
2023/05/30 00:40:17;;;;;;;;;6.00;4.75;;;;;17.53;44.70;101401.16;5076570;28;45643;-79
2023/05/30 00:42:43;;;;;;;;;4.75;4.00;;;;;17.51;44.65;101408.41;5077043;27;45682;-83
2023/05/30 00:48:31;;;;;;;;;4.50;4.25;;;;;17.42;45.08;101398.63;5070922;28;45689;-81
2023/05/30 00:50:56;;;;;;;;;3.00;3.00;;;;;17.40;44.90;101395.25;5075128;28;45623;-79
2023/05/30 00:53:23;;;;;;;;;6.00;5.25;;;;;17.40;45.05;101397.06;5075470;28;45737;-81
2023/05/30 00:55:49;;;;;;;;;4.75;4.00;;;;;17.35;45.32;101400.09;5076610;27;45746;-80
2023/05/30 00:58:15;;;;;;;;;5.00;4.25;;;;;17.35;44.96;101397.47;5076349;28;45938;-82
2023/05/30 01:00:41;;;;;;;;;6.00;5.00;;;;;17.28;45.16;101390.16;5076138;27;45803;-79
2023/05/30 01:03:08;;;;;;;;;3.75;3.75;;;;;17.26;45.69;101394.78;5076563;27;45658;-81
2023/05/30 01:05:34;;;;;;;;;4.75;3.75;;;;;17.23;45.42;101401.16;5076388;28;46584;-80
2023/05/30 01:07:59;;;;;;;;;6.25;5.00;;;;;17.20;45.91;101407.59;5076001;28;45542;-79
2023/05/30 01:10:25;;;;;;;;;3.75;3.00;;;;;17.14;46.03;101410.75;5074597;28;45546;-80
2023/05/30 01:13:09;;;;;;;;;4.25;3.00;;;;;17.10;46.06;101405.84;5076518;27;45674;-80
2023/05/30 01:19:05;;;;;;;;;6.75;4.50;;;;;16.97;46.21;101403.41;5075525;28;46398;-79
2023/05/30 01:21:32;;;;;;;;;5.50;4.50;;;;;16.96;46.40;101401.72;5076007;27;45823;-81
2023/05/30 01:24:30;;;;;;;;;2.75;2.75;;;;;16.94;46.89;101395.75;5074557;28;45892;-80
2023/05/30 01:27:24;;;;;;;;;4.25;3.75;;;;;16.93;46.43;101409.09;5013457;28;45677;-79
2023/05/30 01:29:50;;;;;;;;;4.00;3.00;;;;;16.86;46.61;101390.25;5012838;28;46588;-79
2023/05/30 01:32:16;;;;;;;;;7.00;4.50;;;;;16.85;47.25;101401.78;5013635;28;45689;-80
2023/05/30 01:34:42;;;;;;;;;4.00;3.50;;;;;16.82;47.14;101409.16;5013857;28;45833;-80
2023/05/30 01:37:07;;;;;;;;;5.00;4.50;;;;;16.75;46.93;101412.31;5013369;28;46376;-80
2023/05/30 01:39:33;;;;;;;;;3.25;2.75;;;;;16.75;47.45;101408.84;4996107;28;48086;-79
2023/05/30 01:42:23;;;;;;;;;4.00;3.00;;;;;16.71;47.31;101410.91;5013537;28;45807;-79
2023/05/30 01:45:01;;;;;;;;;4.00;4.00;;;;;16.67;47.71;101414.78;4996820;28;45642;-79
2023/05/30 01:47:57;;;;;;;;;6.00;4.00;;;;;16.62;47.75;101410.84;5012759;28;45696;-79
2023/05/30 01:50:28;;;;;;;;;6.00;4.00;;;;;16.52;47.85;101405.44;5013361;28;46512;-79
2023/05/30 01:52:59;;;;;;;;;4.25;4.00;;;;;16.50;48.19;101404.72;5014125;28;45669;-79
2023/05/30 01:55:26;;;;;;;;;6.50;4.00;;;;;16.45;48.26;101408.72;5014095;28;45678;-80
2023/05/30 01:57:53;;;;;;;;;6.00;6.00;;;;;16.34;48.12;101396.41;5014122;28;45734;-78
2023/05/30 02:00:20;;;;;;;;;4.00;4.00;;;;;16.29;48.45;101412.66;5013140;28;45685;-79
2023/05/30 02:02:46;;;;;;;;;4.00;4.00;;;;;16.26;48.48;101417.31;5031209;28;45582;-79
2023/05/30 02:05:11;;;;;;;;;4.75;3.00;;;;;16.23;48.56;101410.50;5074261;28;45986;-78
2023/05/30 02:07:37;;;;;;;;;6.00;4.00;;;;;16.21;48.62;101404.47;5076272;27;46579;-81
2023/05/30 02:10:02;;;;;;;;;4.25;4.00;;;;;16.14;48.88;101399.84;5075994;27;45553;-80
2023/05/30 02:12:28;;;;;;;;;5.00;4.00;;;;;16.11;48.79;101410.66;5074570;28;45751;-81
2023/05/30 02:14:54;;;;;;;;;4.00;4.00;;;;;16.10;48.77;101407.16;5073942;28;45734;-81
2023/05/30 02:17:23;;;;;;;;;5.00;4.00;;;;;16.07;49.21;101417.16;5075465;27;46314;-79
2023/05/30 02:19:49;;;;;;;;;4.00;4.00;;;;;16.05;49.06;101413.78;5074714;27;45878;-80
2023/05/30 02:22:15;;;;;;;;;7.00;5.25;;;;;16.00;49.31;101410.69;5075292;27;45679;-80
2023/05/30 02:24:41;;;;;;;;;5.25;4.00;;;;;15.95;49.49;101411.06;5075262;27;45514;-80
2023/05/30 02:27:07;;;;;;;;;4.25;4.00;;;;;15.90;49.41;101402.66;5073878;28;46207;-79
2023/05/30 02:29:32;;;;;;;;;5.00;4.00;;;;;15.92;49.57;101406.84;5074583;27;45679;-79
2023/05/30 02:31:58;;;;;;;;;7.25;4.00;;;;;15.90;49.57;101413.22;5074503;27;45561;-78
2023/05/30 02:34:23;;;;;;;;;6.00;4.75;;;;;15.89;49.38;101404.47;5074943;28;45706;-80
2023/05/30 02:36:49;;;;;;;;;6.00;4.00;;;;;15.86;49.52;101404.72;5074549;28;46441;-80
2023/05/30 02:39:14;;;;;;;;;6.00;5.00;;;;;15.89;49.80;101406.25;5074765;28;45616;-80
2023/05/30 02:41:39;;;;;;;;;5.00;4.00;;;;;15.88;49.62;101402.78;5075507;27;46103;-80
2023/05/30 02:44:06;;;;;;;;;5.25;4.00;;;;;15.89;50.11;101414.19;5075503;27;45637;-81
2023/05/30 02:49:53;;;;;;;;;5.00;4.00;;;;;15.81;49.62;101403.41;5063386;28;45770;-79
2023/05/30 02:52:22;;;;;;;;;7.25;4.25;;;;;15.77;49.93;101404.59;5073276;28;45753;-82
2023/05/30 02:54:48;;;;;;;;;6.50;4.75;;;;;15.74;50.46;101410.13;5075048;28;45777;-81
2023/05/30 02:57:13;;;;;;;;;5.00;5.00;;;;;15.68;50.29;101402.69;5072839;28;48595;-81
2023/05/30 02:59:39;;;;;;;;;6.00;4.50;;;;;15.59;50.56;101406.06;5073728;27;45711;-81
2023/05/30 03:02:05;;;;;;;;;6.75;4.25;;;;;15.57;50.76;101403.53;5074375;28;45747;-81
2023/05/30 03:04:30;;;;;;;;;6.50;5.00;;;;;15.52;50.74;101409.19;5074683;27;45552;-79
2023/05/30 03:06:55;;;;;;;;;5.25;4.75;;;;;15.51;51.01;101412.78;5072583;28;46633;-80
2023/05/30 03:09:21;;;;;;;;;3.00;3.00;;;;;15.47;50.56;101407.84;5074218;27;46034;-78
2023/05/30 03:11:46;;;;;;;;;4.50;4.50;;;;;15.42;51.01;101410.84;5073182;28;45580;-80
2023/05/30 03:14:12;;;;;;;;;5.50;4.00;;;;;15.39;51.00;101413.72;5074766;28;45483;-78
2023/05/30 03:19:59;;;;;;;;;4.50;4.00;;;;;15.32;51.04;101407.25;5073472;28;46154;-79
2023/05/30 03:22:24;;;;;;;;;4.00;4.00;;;;;15.34;51.20;101415.88;5072638;28;45558;-80
2023/05/30 03:24:50;;;;;;;;;7.25;4.50;;;;;15.33;50.83;101413.38;5074128;28;45721;-79
2023/05/30 03:27:15;;;;;;;;;9.50;3.00;;;;;15.33;51.26;101418.66;5074112;27;45664;-79
2023/05/30 03:29:41;;;;;;;;;5.00;4.50;;;;;15.31;51.30;101416.13;5071984;28;46008;-79
2023/05/30 03:32:07;;;;;;;;;7.50;5.75;;;;;15.31;51.10;101418.78;5073693;27;45691;-79
2023/05/30 03:34:33;;;;;;;;;6.00;5.00;;;;;15.31;50.98;101415.28;5074350;28;45739;-78
2023/05/30 03:36:59;;;;;;;;;6.00;4.00;;;;;15.32;51.27;101419.63;5073937;27;45626;-80
2023/05/30 03:39:24;;;;;;;;;5.75;5.00;;;;;15.32;50.50;101428.38;5073322;27;45698;-80
2023/05/30 03:41:49;;;;;;;;;4.50;2.25;;;;;15.31;51.06;101424.06;5074267;28;45606;-80
2023/05/30 03:44:15;;;;;;;;;4.50;3.00;;;;;15.32;50.91;101428.38;5073977;28;45684;-79
2023/05/30 03:50:03;;;;;;;;;7.00;4.00;;;;;15.27;50.89;101429.69;5071493;28;45840;-80
2023/05/30 03:52:29;;;;;;;;;4.75;3.25;;;;;15.24;50.93;101424.63;5073659;27;45785;-81
2023/05/30 03:54:55;;;;;;;;;6.50;4.25;;;;;15.21;51.14;101430.16;5073901;28;45541;-80
2023/05/30 03:57:20;;;;;;;;;4.00;3.00;;;;;15.21;50.73;101438.94;5074150;28;46692;-81
2023/05/30 03:59:46;;;;;;;;;5.25;3.00;;;;;15.17;50.81;101441.94;5089154;27;47206;-81
2023/05/30 04:05:33;;;;;;;;;3.50;2.25;;;;;15.14;50.84;101448.28;5082889;28;45656;-79
2023/05/30 04:07:58;;;;;;;;;6.00;3.25;;;;;15.12;50.81;101447.53;5082804;28;45945;-80
2023/05/30 04:10:24;;;;;;;;;4.50;4.00;;;;;15.08;50.96;101432.91;5080624;28;46283;-81
2023/05/30 04:12:49;;;;;;;;;4.00;4.00;;;;;15.03;50.88;101442.97;5078047;27;45646;-80
2023/05/30 04:15:15;;;;;;;;;3.00;3.00;;;;;15.01;51.56;101445.72;5075725;28;45642;-80
2023/05/30 04:17:40;;;;;;;;;8.75;4.75;;;;;14.99;51.01;101452.09;5074594;27;46420;-81
2023/05/30 04:20:09;;;;;;;;;2.25;2.00;;;;;14.95;50.90;101434.81;5073689;27;46324;-80
2023/05/30 04:22:35;;;;;;;;;2.50;2.50;;;;;14.95;50.90;101442.72;5073117;28;45654;-80
2023/05/30 04:25:01;;;;;;;;;5.75;3.25;;;;;14.92;51.14;101437.66;5073783;27;45519;-79
2023/05/30 04:27:26;;;;;;;;;2.00;2.00;;;;;14.88;51.41;101441.50;5073334;27;46262;-79
2023/05/30 04:29:55;;;;;;;;;5.25;3.00;;;;;14.88;51.38;101442.34;5073284;27;45604;-79
2023/05/30 04:35:43;;;;;;;;;5.00;3.00;;;;;14.78;51.02;101448.44;5073338;28;45578;-83
2023/05/30 04:38:09;;;;;;;;;3.00;3.00;;;;;14.76;51.44;101451.19;5073241;28;45891;-80
2023/05/30 04:40:35;;;;;;;;;3.00;2.00;;;;;14.77;51.38;101462.56;5071615;28;47358;-80
2023/05/30 04:43:00;;;;;;;;;5.50;3.25;;;;;14.76;51.45;101471.44;5073625;28;45609;-81
2023/05/30 04:45:28;;;;;;;;;3.75;2.50;;;;;14.79;51.68;101479.16;5074274;28;45878;-80
2023/05/30 04:47:54;;;;;;;;;4.75;4.00;;;;;14.77;51.75;101491.59;5073136;27;45505;-79
2023/05/30 04:50:20;;;;;;;;;5.00;3.00;;;;;14.77;51.34;101497.72;5073672;27;46245;-80
2023/05/30 04:52:46;;;;;;;;;5.25;3.75;;;;;14.75;51.69;101485.56;5075184;28;45569;-80
2023/05/30 04:55:12;;;;;;;;;5.50;4.00;;;;;14.70;51.44;101475.38;5076329;27;45474;-81
2023/05/30 04:57:38;;;;;;;;;4.25;3.00;;;;;14.67;51.68;101476.47;5076711;27;45473;-80
2023/05/30 05:00:09;;;;;;;;;5.00;4.50;;;;;14.66;51.76;101480.03;5076699;27;46110;-80
2023/05/30 05:05:57;;;;;;;;;1.75;1.00;;;;;14.57;52.15;101475.47;5076688;28;45592;-81
2023/05/30 05:08:22;;;;;;;;;4.75;3.75;;;;;14.56;51.86;101480.84;5076307;27;46446;-79
2023/05/30 05:10:48;;;;;;;;;4.00;2.50;;;;;14.53;52.13;101473.97;5076263;28;46240;-80
2023/05/30 05:13:13;;;;;;;;;3.75;3.50;;;;;14.53;51.76;101483.69;5076345;28;45610;-80
2023/05/30 05:15:38;;;;;;;;;3.75;3.00;;;;;14.50;52.12;101484.78;5076337;27;45481;-79
2023/05/30 05:18:04;;;;;;;;;3.75;3.00;;;;;14.53;51.90;101494.22;5075898;27;45655;-78
2023/05/30 05:20:30;;;;;;;;;5.00;3.00;;;;;14.51;52.18;101488.25;5076115;27;45829;-76
2023/05/30 05:22:56;;;;;;;;;3.00;2.00;;;;;14.52;52.24;101489.94;5076195;28;45608;-76
2023/05/30 05:25:22;;;;;;;;;2.75;2.75;;;;;14.53;52.10;101483.69;5076227;27;45806;-76
2023/05/30 05:27:47;;;;;;;;;4.00;3.25;;;;;14.53;51.83;101489.81;5075944;27;46532;-77
2023/05/30 05:30:13;;;;;;;;;7.50;5.00;;;;;14.55;51.81;101485.28;5075447;28;45673;-76
2023/05/30 05:36:02;;;;;;;;;4.00;3.00;;;;;14.59;51.52;101493.78;5075964;28;45620;-76
2023/05/30 05:38:27;;;;;;;;;4.00;4.00;;;;;14.61;51.67;101489.25;5078000;28;46986;-76
2023/05/30 05:40:53;;;;;;;;;7.00;3.00;;;;;14.61;51.42;101494.53;5075584;28;45613;-76
2023/05/30 05:43:18;;;;;;;;;3.00;3.00;;;;;14.60;51.75;101492.84;5075804;27;45706;-76
2023/05/30 05:45:43;;;;;;;;;7.00;4.00;;;;;14.58;51.61;101492.09;5075586;27;45623;-75
2023/05/30 05:51:31;;;;;;;;;3.00;3.00;;;;;14.61;51.54;101508.56;5064141;28;45753;-82
2023/05/30 05:53:57;;;;;;;;;4.25;3.75;;;;;14.61;51.60;101505.91;5074294;28;45788;-82
2023/05/30 05:56:22;;;;;;;;;4.50;4.25;;;;;14.61;51.71;101508.56;5076114;27;45824;-79
2023/05/30 05:58:48;;;;;;;;;4.25;4.25;;;;;14.59;51.99;101492.00;5091310;27;47322;-78
2023/05/30 06:01:14;;;;;;;;;3.25;3.25;;;;;14.60;51.66;101501.59;5075275;28;45761;-76
2023/05/30 06:03:39;;;;;;;;;4.50;3.00;;;;;14.58;51.49;101497.38;5075427;28;45808;-76
2023/05/30 06:06:06;;;;;;;;;3.25;3.00;;;;;14.58;51.69;101497.38;5075203;28;45642;-77
2023/05/30 06:08:31;;;;;;;;;5.25;4.00;;;;;14.62;51.55;101501.50;5074791;27;45546;-75
2023/05/30 06:10:56;;;;;;;;;3.25;2.00;;;;;14.65;51.62;101501.25;5075146;28;46027;-76
2023/05/30 06:13:22;;;;;;;;;4.00;3.50;;;;;14.65;51.68;101499.47;5075421;28;45643;-77
2023/05/30 06:15:47;;;;;;;;;6.25;3.00;;;;;14.68;51.58;101512.41;5075111;28;45746;-77
2023/05/30 06:21:35;;;;;;;;;4.00;3.00;;;;;14.70;51.56;101509.66;5075560;28;45694;-77
2023/05/30 06:24:03;;;;;;;;;6.00;4.25;;;;;14.72;51.79;101512.19;5077477;27;45765;-77
2023/05/30 06:26:28;;;;;;;;;5.50;4.00;;;;;14.73;51.42;101509.47;5077782;28;45455;-79
2023/05/30 06:28:53;;;;;;;;;4.00;3.00;;;;;14.76;51.36;101518.91;5076967;28;45643;-76
2023/05/30 06:31:19;;;;;;;;;1.00;0.00;;;;;14.78;51.33;101504.69;5075617;28;45478;-77
2023/05/30 06:33:45;;;;;;;;;4.00;4.00;;;;;14.80;51.42;101508.03;5075442;28;45560;-78
2023/05/30 06:36:10;;;;;;;;;4.50;3.00;;;;;14.81;51.42;101511.50;5075170;28;45732;-79
2023/05/30 06:38:35;;;;;;;;;4.75;4.00;;;;;14.82;51.14;101505.28;5074547;27;45463;-76
2023/05/30 06:41:01;;;;;;;;;4.00;3.00;;;;;14.83;51.46;101489.34;5090069;27;47390;-76
2023/05/30 06:43:26;;;;;;;;;5.50;3.25;;;;;14.87;50.99;101505.78;5074769;27;45655;-77
2023/05/30 06:45:51;;;;;;;;;5.25;2.25;;;;;14.88;51.01;101508.31;5073209;28;45624;-78
2023/05/30 06:51:38;;;;;;;;;4.50;3.75;;;;;14.88;51.07;101513.59;5072697;28;45811;-76
2023/05/30 06:54:04;;;;;;;;;4.50;4.00;;;;;14.92;51.26;101509.75;5074579;28;45587;-76
2023/05/30 06:56:30;;;;;;;;;7.75;4.50;;;;;14.94;50.76;101507.84;5074447;28;45643;-75
2023/05/30 06:58:55;;;;;;;;;5.25;3.00;;;;;14.97;50.93;101510.25;5072584;28;46698;-76
2023/05/30 07:01:21;;;;;;;;;3.75;3.00;;;;;15.02;50.80;101508.09;5074612;28;46019;-76
2023/05/30 07:07:09;;;;;;;;;7.25;5.00;;;;;15.13;50.72;101516.06;5074396;28;45584;-78
2023/05/30 07:09:34;;;;;;;;;3.00;2.75;;;;;15.14;50.68;101503.69;5074080;27;46251;-77
2023/05/30 07:12:00;;;;;;;;;4.75;4.00;;;;;15.21;50.61;101518.13;5074486;28;45576;-77
2023/05/30 07:14:26;;;;;;;;;4.25;3.25;;;;;15.25;50.47;101510.81;5074098;27;45511;-77
2023/05/30 07:16:51;;;;;;;;;4.00;3.00;;;;;15.31;50.45;101510.34;5074623;28;45676;-76
2023/05/30 07:19:16;;;;;;;;;4.50;3.75;;;;;15.33;50.21;101503.16;5074133;27;45507;-76
2023/05/30 07:21:42;;;;;;;;;5.00;4.25;;;;;15.39;50.12;101515.88;5074352;28;45588;-77
2023/05/30 07:24:07;;;;;;;;;2.75;2.00;;;;;15.43;50.13;101509.41;5074295;28;45524;-77
2023/05/30 07:26:34;;;;;;;;;4.00;3.00;;;;;15.44;50.16;101501.34;5074118;27;45716;-77
2023/05/30 07:29:00;;;;;;;;;4.75;4.00;;;;;15.53;49.65;101503.34;5073640;28;45750;-78
2023/05/30 07:31:25;;;;;;;;;4.50;3.25;;;;;15.56;49.89;101504.88;5073928;28;46207;-77
2023/05/30 07:37:12;;;;;;;;;5.00;4.00;;;;;15.73;49.60;101511.50;5073759;28;45503;-78
2023/05/30 07:39:37;;;;;;;;;4.75;3.00;;;;;15.76;49.60;101508.63;5073311;28;46515;-75
2023/05/30 07:42:03;;;;;;;;;1.75;0.50;;;;;15.78;49.52;101504.03;5073797;27;45625;-76
2023/05/30 07:44:28;;;;;;;;;4.25;3.00;;;;;15.83;49.33;101509.81;5073334;27;45608;-78
2023/05/30 07:46:53;;;;;;;;;4.25;3.00;;;;;15.86;49.00;101505.16;5073960;28;45662;-78
2023/05/30 07:49:19;;;;;;;;;5.75;4.75;;;;;15.90;49.01;101509.22;5073306;28;45605;-78
2023/05/30 07:51:45;;;;;;;;;4.50;4.00;;;;;15.95;48.98;101500.91;5073487;27;45666;-76
2023/05/30 07:54:10;;;;;;;;;5.00;4.00;;;;;16.01;48.81;101508.38;5073862;27;45645;-79
2023/05/30 07:56:36;;;;;;;;;4.00;3.00;;;;;16.07;48.62;101528.19;5074017;28;45571;-79
2023/05/30 07:59:01;;;;;;;;;6.75;5.00;;;;;16.12;48.91;101518.94;5071690;28;46684;-78
2023/05/30 08:01:27;;;;;;;;;5.50;4.00;;;;;16.13;48.96;101517.13;5073392;28;47137;-78
2023/05/30 08:07:13;;;;;;;;;3.75;3.00;;;;;16.24;48.83;101525.03;5073879;28;45631;-78
2023/05/30 08:09:39;;;;;;;;;5.25;4.00;;;;;16.28;48.83;101521.19;5073701;27;46858;-77
2023/05/30 08:12:05;;;;;;;;;7.00;5.00;;;;;16.33;48.57;101530.44;5089499;27;47433;-77
2023/05/30 08:14:32;;;;;;;;;5.75;4.75;;;;;16.40;48.54;101535.22;5073923;27;45579;-78
2023/05/30 08:16:58;;;;;;;;;5.00;3.25;;;;;16.46;48.63;101525.00;5073628;27;45786;-77
2023/05/30 08:19:24;;;;;;;;;4.25;4.00;;;;;16.52;48.57;101526.31;5073211;27;47533;-76
2023/05/30 08:21:49;;;;;;;;;5.25;3.75;;;;;16.55;48.66;101529.53;5073376;28;46155;-77
2023/05/30 08:24:17;;;;;;;;;4.00;3.25;;;;;16.61;48.30;101523.78;5072473;28;45545;-78
2023/05/30 08:26:43;;;;;;;;;5.00;2.75;;;;;16.65;48.33;101530.50;5075428;28;45852;-77
2023/05/30 08:29:08;;;;;;;;;4.25;2.00;;;;;16.68;48.04;101527.59;5075346;28;47520;-77
2023/05/30 08:31:34;;;;;;;;;5.00;2.00;;;;;16.72;48.44;101530.84;5077001;28;46234;-75
2023/05/30 08:37:21;;;;;;;;;4.00;3.75;;;;;16.81;48.08;101516.00;5077205;28;45528;-76
2023/05/30 08:39:47;;;;;;;;;5.00;4.50;;;;;16.86;48.26;101519.09;5077563;28;47521;-77
2023/05/30 08:42:15;;;;;;;;;5.00;4.75;;;;;16.91;47.76;101527.50;5081235;28;46387;-77
2023/05/30 08:44:40;;;;;;;;;4.75;4.00;;;;;16.94;47.71;101530.75;5083464;27;45685;-75
2023/05/30 08:53:36;;;;;;;;;9.50;7.00;;;;;17.14;47.64;101519.31;5071191;28;45655;-76
2023/05/30 08:56:07;;;;;;;;;4.25;3.50;;;;;17.19;47.47;101516.28;5074984;28;45646;-75
2023/05/30 08:58:39;;;;;;;;;6.00;5.50;;;;;17.25;47.30;101521.06;5091845;27;45675;-76
2023/05/30 09:01:06;;;;;;;;;5.00;4.00;;;;;17.31;47.53;101514.41;5076278;27;47604;-76
2023/05/30 09:06:57;;;;;;;;;4.25;4.00;;;;;17.44;47.14;101513.22;5075799;28;45961;-74
2023/05/30 09:09:23;;;;;;;;;4.00;2.00;;;;;17.50;47.00;101512.72;5074785;27;46086;-76
2023/05/30 09:11:52;;;;;;;;;4.00;4.00;;;;;17.54;47.42;101513.31;5075187;27;46824;-75
2023/05/30 09:14:17;;;;;;;;;5.00;3.00;;;;;17.56;47.13;101516.63;5075165;27;46592;-76
2023/05/30 09:16:43;;;;;;;;;5.75;3.50;;;;;17.60;46.82;101513.63;5091199;27;45855;-75
2023/05/30 09:22:31;;;;;;;;;6.50;5.25;;;;;17.69;47.08;101514.66;5074748;28;45653;-79
2023/05/30 09:25:01;;;;;;;;;5.75;5.00;;;;;17.74;46.97;101504.50;5074833;27;46147;-77
2023/05/30 09:27:31;;;;;;;;;7.00;5.75;;;;;17.81;46.81;101505.66;5090466;27;45814;-77
2023/05/30 09:29:56;;;;;;;;;4.00;3.50;;;;;17.84;46.69;101504.53;5090187;27;45662;-77
2023/05/30 09:39:06;;;;;;;;;5.50;4.00;;;;;17.96;46.85;101493.69;5074039;28;45688;-75
2023/05/30 09:41:32;;;;;;;;;6.25;4.75;;;;;18.01;46.46;101495.94;5090427;27;45557;-79
2023/05/30 09:43:58;;;;;;;;;7.50;3.25;;;;;18.06;46.76;101506.97;5073055;28;46769;-78
2023/05/30 09:46:26;;;;;;;;;4.25;4.25;;;;;18.11;46.14;101519.81;5074228;27;46329;-77
2023/05/30 09:48:52;;;;;;;;;5.00;5.00;;;;;18.13;46.57;101505.47;5074348;27;45737;-77
2023/05/30 09:51:22;;;;;;;;;5.25;4.50;;;;;18.17;46.12;101503.38;5090331;27;45740;-75
2023/05/30 09:53:56;;;;;;;;;5.00;4.25;;;;;18.20;46.32;101517.19;5074589;27;46562;-77
2023/05/30 09:56:29;;;;;;;;;4.75;4.00;;;;;18.24;46.45;101501.88;5074531;27;46514;-77
2023/05/30 09:59:02;;;;;;;;;3.00;3.00;;;;;18.28;46.33;101495.31;5072756;27;45949;-77
2023/05/30 10:01:37;;;;;;;;;4.00;3.25;;;;;18.35;46.31;101501.75;5074653;27;45690;-76
2023/05/30 10:04:17;;;;;;;;;5.75;4.50;;;;;18.42;45.94;101503.69;5073895;27;45856;-74
2023/05/30 10:06:45;;;;;;;;;6.25;5.00;;;;;18.48;46.18;101509.44;5074406;27;45946;-74
2023/05/30 10:09:11;;;;;;;;;5.75;5.50;;;;;18.51;45.70;101504.69;5089165;27;45681;-77
2023/05/30 10:11:41;;;;;;;;;4.00;3.75;;;;;18.54;45.52;101492.97;5074536;27;45626;-77
2023/05/30 10:14:08;;;;;;;;;6.50;5.25;;;;;18.55;45.97;101492.00;5074129;27;46501;-75
2023/05/30 10:16:48;;;;;;;;;7.25;5.00;;;;;18.64;45.77;101491.16;5072594;28;46560;-75
2023/05/30 10:19:18;;;;;;;;;3.25;2.00;;;;;18.69;45.61;101510.19;5071596;28;45707;-75
2023/05/30 10:21:44;;;;;;;;;4.75;4.50;;;;;18.71;45.55;101503.75;5074198;27;45755;-77
2023/05/30 10:24:13;;;;;;;;;4.25;3.50;;;;;18.75;45.57;101501.66;5073911;27;47432;-76
2023/05/30 10:26:47;;;;;;;;;5.00;4.25;;;;;18.78;45.07;101506.69;5073874;27;46033;-77
2023/05/30 10:29:14;;;;;;;;;4.50;4.25;;;;;18.84;45.39;101506.13;5088529;27;45701;-76
2023/05/30 10:31:40;;;;;;;;;5.25;4.00;;;;;18.90;45.19;101502.06;5074330;27;45894;-77
2023/05/30 10:34:11;;;;;;;;;5.00;4.50;;;;;18.96;44.99;101501.50;5071789;28;48353;-78
2023/05/30 10:36:41;;;;;;;;;5.00;3.50;;;;;18.97;44.88;101504.03;5089080;27;47728;-76
2023/05/30 10:39:33;;;;;;;;;6.00;4.75;;;;;19.01;44.63;101489.47;5088303;27;45633;-79
2023/05/30 10:42:07;;;;;;;;;5.50;4.25;;;;;19.03;44.92;101492.84;5089403;27;45832;-78
2023/05/30 10:44:55;;;;;;;;;6.25;3.75;;;;;19.06;44.68;101487.22;5088968;27;46518;-79
2023/05/30 10:48:13;;;;;;;;;5.50;5.00;;;;;19.13;44.72;101484.84;5072633;27;47481;-77
2023/05/30 10:50:44;;;;;;;;;6.00;5.00;;;;;19.20;44.10;101481.50;5073656;28;45624;-76
2023/05/30 10:53:19;;;;;;;;;5.00;5.00;;;;;19.26;44.54;101480.91;5073280;27;45831;-77
2023/05/30 10:55:48;;;;;;;;;8.50;8.00;;;;;19.34;44.35;101489.97;5073404;27;47972;-74
2023/05/30 10:58:39;;;;;;;;;31.75;28.75;;;;;19.42;44.41;101471.50;5072181;28;46569;-76
2023/05/30 11:01:28;;;;;;;;;26.75;21.00;;;;;19.46;44.36;101456.97;5092970;27;45573;-77
2023/05/30 11:03:58;;;;;;;;;10.25;9.25;;;;;19.52;43.92;101459.03;5092776;27;45945;-78
2023/05/30 11:06:26;;;;;;;;;56.00;42.50;;;;;19.57;44.08;101465.59;5092363;27;46419;-81
2023/05/30 11:08:53;;;;;;;;;20.75;17.50;;;;;19.63;43.40;101474.81;5074492;27;47532;-77
2023/05/30 11:11:21;;;;;;;;;11.50;10.75;;;;;19.67;43.31;101445.13;5090145;27;45760;-78
2023/05/30 11:13:49;;;;;;;;;4.00;3.75;;;;;19.72;43.42;101449.97;5074626;27;45660;-78
2023/05/30 11:16:24;;;;;;;;;7.50;6.00;;;;;19.77;43.51;101455.69;5073603;27;46557;-78
2023/05/30 11:18:52;;;;;;;;;11.25;10.00;;;;;19.85;42.97;101460.28;5074679;27;46068;-79
2023/05/30 11:21:55;;;;;;;;;6.50;6.50;;;;;19.86;43.13;101446.84;5093133;27;45814;-76
2023/05/30 11:24:21;;;;;;;;;5.25;5.25;;;;;19.88;42.94;101450.19;5071963;28;45665;-78
2023/05/30 11:27:06;;;;;;;;;6.50;5.00;;;;;19.93;42.56;101450.56;5072887;27;46513;-79
2023/05/30 11:29:35;;;;;;;;;8.00;6.50;;;;;20.00;42.61;101456.13;5072770;27;46197;-78
2023/05/30 11:32:01;;;;;;;;;7.50;7.25;;;;;20.04;42.58;101447.69;5088486;27;45694;-79
2023/05/30 11:34:27;;;;;;;;;14.75;13.50;;;;;20.08;42.63;101454.38;5088515;27;45876;-80
2023/05/30 11:36:55;;;;;;;;;21.00;17.50;;;;;20.15;41.84;101451.97;5072564;27;45865;-80
2023/05/30 11:39:21;;;;;;;;;10.75;10.25;;;;;20.19;41.58;101450.69;5072595;28;46200;-79
2023/05/30 11:41:48;;;;;;;;;7.50;7.50;;;;;20.26;41.50;101437.59;5073126;27;45621;-78
2023/05/30 11:44:14;;;;;;;;;18.50;15.25;;;;;20.28;41.47;101433.00;5072828;27;45649;-79
2023/05/30 11:46:40;;;;;;;;;16.50;14.50;;;;;20.32;41.32;101427.25;5072818;27;46696;-79
2023/05/30 11:49:06;;;;;;;;;14.00;12.00;;;;;20.41;41.03;101434.28;5072281;28;46560;-79
2023/05/30 11:51:32;;;;;;;;;13.75;12.50;;;;;20.48;40.74;101424.72;5072751;27;45785;-79
2023/05/30 11:53:58;;;;;;;;;12.00;10.25;;;;;20.55;40.52;101446.25;5072644;27;45908;-78
2023/05/30 11:56:31;;;;;;;;;13.25;12.25;;;;;20.59;40.47;101436.97;5072740;28;45901;-79
2023/05/30 11:58:57;;;;;;;;;15.75;14.75;;;;;20.62;39.45;101436.63;5072574;27;46044;-76
2023/05/30 12:01:23;;;;;;;;;12.25;8.00;;;;;20.68;39.48;101441.34;5076367;27;45934;-78
2023/05/30 12:03:49;;;;;;;;;4.75;3.00;;;;;20.74;39.60;101434.56;5076427;27;45568;-76
2023/05/30 12:06:14;;;;;;;;;7.25;5.75;;;;;20.78;38.61;101431.44;5091671;27;46466;-77
2023/05/30 12:08:45;;;;;;;;;5.25;4.75;;;;;20.81;39.03;101439.16;5075679;28;45955;-77
2023/05/30 12:11:12;;;;;;;;;8.25;8.00;;;;;20.80;38.95;101424.16;5091531;27;45718;-78
2023/05/30 12:13:38;;;;;;;;;17.00;13.75;;;;;20.86;38.89;101420.03;5076164;27;45738;-77
2023/05/30 12:16:03;;;;;;;;;14.50;14.00;;;;;20.90;38.47;101419.56;5076586;27;45650;-78
2023/05/30 12:18:31;;;;;;;;;10.25;8.00;;;;;20.94;38.18;101425.44;5075389;27;45508;-77
2023/05/30 12:21:00;;;;;;;;;12.00;8.00;;;;;20.93;38.82;101411.25;5076172;27;45787;-77
2023/05/30 12:23:25;;;;;;;;;30.00;27.75;;;;;21.03;38.24;101426.31;5076131;27;46040;-77
2023/05/30 12:25:54;;;;;;;;;16.75;12.25;;;;;21.10;38.17;101427.34;5075773;27;45744;-78
2023/05/30 12:28:23;;;;;;;;;9.25;8.25;;;;;21.17;37.85;101437.25;5075422;27;46190;-77
2023/05/30 12:30:51;;;;;;;;;12.25;11.00;;;;;21.22;37.66;101420.78;5075901;27;45625;-77
2023/05/30 12:33:19;;;;;;;;;9.75;9.00;;;;;21.27;37.92;101427.31;5076133;27;45588;-77
2023/05/30 12:39:07;;;;;;;;;12.50;9.50;;;;;21.36;36.96;101412.22;5074813;28;45985;-78
2023/05/30 12:41:36;;;;;;;;;12.25;11.75;;;;;21.39;37.14;101419.03;5075741;28;46011;-77
2023/05/30 12:44:02;;;;;;;;;14.50;14.00;;;;;21.39;37.07;101421.69;5075919;28;45698;-78
2023/05/30 12:46:27;;;;;;;;;10.00;9.00;;;;;21.42;37.18;101419.56;5075465;27;45693;-77